Time;durP1;ratioP1;P1;durP2;ratioP2;P2;SDS_P1;SDS_P2;PMS_P1;PMS_P2;Temp;Humidity;BMP_temperature;BMP_pressure;BME280_temperature;BME280_humidity;BME280_pressure;Samples;Min_cycle;Max_cycle;Signal;HPM_P1;HPM_P2
2022/08/08 00:01:42;;;;;;;0.00;0.00;;;24.00;58.20;;;;;;4177048;28;20637;-68
2022/08/08 00:04:24;;;;;;;0.00;0.00;;;24.00;57.50;;;;;;4193316;28;20074;-67
2022/08/08 00:06:56;;;;;;;0.00;0.00;;;23.90;57.50;;;;;;4192091;28;20495;-68
2022/08/08 00:09:24;;;;;;;0.00;0.00;;;23.90;57.60;;;;;;4160107;28;20073;-68
2022/08/08 00:11:58;;;;;;;0.00;0.00;;;23.90;57.60;;;;;;4160170;28;20471;-68
2022/08/08 00:14:42;;;;;;;0.00;0.00;;;23.90;57.60;;;;;;4190138;28;20051;-67
2022/08/08 00:17:15;;;;;;;0.00;0.00;;;23.90;57.60;;;;;;4188148;28;20126;-67
2022/08/08 00:19:50;;;;;;;0.10;0.10;;;23.90;57.60;;;;;;4193202;28;20767;-68
2022/08/08 00:22:20;;;;;;;0.00;0.00;;;23.90;57.70;;;;;;4192141;28;20411;-68
2022/08/08 00:24:45;;;;;;;0.00;0.00;;;23.90;57.70;;;;;;4193145;28;20055;-68
2022/08/08 00:27:11;;;;;;;0.00;0.00;;;23.90;57.70;;;;;;4191556;28;20048;-68
2022/08/08 00:29:40;;;;;;;0.00;0.00;;;23.90;57.70;;;;;;4176876;28;20043;-69
2022/08/08 00:32:13;;;;;;;0.00;0.00;;;23.90;57.70;;;;;;4165918;28;20053;-68
2022/08/08 00:35:10;;;;;;;0.00;0.00;;;23.90;57.70;;;;;;4159810;28;20056;-68
2022/08/08 00:37:42;;;;;;;0.00;0.00;;;23.80;57.70;;;;;;4176168;28;20133;-68
2022/08/08 00:40:37;;;;;;;0.00;0.00;;;23.90;57.70;;;;;;4176033;28;20053;-67
2022/08/08 00:43:57;;;;;;;0.00;0.00;;;23.80;57.70;;;;;;4164522;28;20146;-67
2022/08/08 00:47:21;;;;;;;0.00;0.00;;;23.80;57.80;;;;;;4159328;28;20567;-68
2022/08/08 00:50:16;;;;;;;0.00;0.00;;;23.80;57.80;;;;;;4174023;28;20051;-67
2022/08/08 00:52:49;;;;;;;0.00;0.00;;;23.80;57.80;;;;;;4160778;28;20045;-67
2022/08/08 00:55:24;;;;;;;0.00;0.00;;;23.80;57.80;;;;;;4186915;28;20619;-67
2022/08/08 00:58:44;;;;;;;0.00;0.00;;;23.80;57.90;;;;;;4191145;28;20090;-67
2022/08/08 01:01:21;;;;;;;0.00;0.00;;;23.70;57.80;;;;;;4187579;28;20056;-67
2022/08/08 01:04:48;;;;;;;0.00;0.00;;;23.70;57.90;;;;;;4191222;28;20113;-67
2022/08/08 01:07:51;;;;;;;0.00;0.00;;;23.70;57.90;;;;;;4094664;28;20055;-66
2022/08/08 01:11:06;;;;;;;0.00;0.00;;;23.70;57.90;;;;;;4118451;28;20201;-66
2022/08/08 01:13:57;;;;;;;0.00;0.00;;;23.70;58.00;;;;;;4190515;28;20074;-66
2022/08/08 01:16:53;;;;;;;0.35;0.35;;;23.70;58.00;;;;;;4158221;28;20548;-66
2022/08/08 01:19:56;;;;;;;0.00;0.00;;;23.60;58.40;;;;;;4157898;28;20045;-66
2022/08/08 01:23:00;;;;;;;0.00;0.00;;;23.60;58.10;;;;;;4171646;28;20526;-66
2022/08/08 01:26:00;;;;;;;0.20;0.20;;;23.60;58.10;;;;;;4173705;28;20055;-66
2022/08/08 01:29:06;;;;;;;0.00;0.00;;;23.60;58.10;;;;;;4173112;28;20534;-66
2022/08/08 01:32:02;;;;;;;0.00;0.00;;;23.60;58.20;;;;;;4171208;28;20553;-66
2022/08/08 01:35:09;;;;;;;0.20;0.15;;;23.60;58.20;;;;;;4160554;28;20048;-66
2022/08/08 01:38:37;;;;;;;0.00;0.00;;;23.60;58.30;;;;;;4173915;28;20045;-66
2022/08/08 01:41:05;;;;;;;0.00;0.00;;;23.50;58.30;;;;;;4060628;29;20146;-66
2022/08/08 01:43:42;;;;;;;0.00;0.00;;;23.50;58.30;;;;;;4122998;28;20057;-66
2022/08/08 01:46:29;;;;;;;0.00;0.00;;;23.50;58.30;;;;;;4154905;28;20083;-66
2022/08/08 01:48:59;;;;;;;0.00;0.00;;;23.50;58.30;;;;;;4155884;28;20064;-65
2022/08/08 01:51:57;;;;;;;0.00;0.00;;;23.50;58.40;;;;;;4157474;28;20056;-66
2022/08/08 01:54:48;;;;;;;0.00;0.00;;;23.50;58.40;;;;;;4173521;28;20037;-66
2022/08/08 01:57:41;;;;;;;0.10;0.10;;;23.50;58.40;;;;;;4141011;28;20068;-66
2022/08/08 02:00:30;;;;;;;0.00;0.00;;;23.40;58.40;;;;;;4156104;28;20086;-66
2022/08/08 02:03:29;;;;;;;0.15;0.15;;;23.50;58.40;;;;;;4157450;28;20117;-66
2022/08/08 02:06:23;;;;;;;0.00;0.00;;;23.50;58.50;;;;;;4155884;28;20044;-68
2022/08/08 02:09:03;;;;;;;0.00;0.00;;;23.40;58.50;;;;;;4173660;28;20095;-66
2022/08/08 02:11:44;;;;;;;0.00;0.00;;;23.40;58.50;;;;;;4163658;28;20049;-62
2022/08/08 02:14:27;;;;;;;0.00;0.00;;;23.40;58.50;;;;;;4157422;28;20072;-62
2022/08/08 02:16:57;;;;;;;0.00;0.00;;;23.40;58.50;;;;;;4157015;28;20045;-62
2022/08/08 02:19:27;;;;;;;0.10;0.10;;;23.40;58.60;;;;;;4157479;28;20409;-62
2022/08/08 02:22:32;;;;;;;0.00;0.00;;;23.40;58.60;;;;;;4156924;28;20061;-62
2022/08/08 02:25:08;;;;;;;0.00;0.00;;;23.40;58.60;;;;;;4156807;28;20132;-62
2022/08/08 02:27:39;;;;;;;0.00;0.00;;;23.40;58.60;;;;;;4163993;28;20132;-62
2022/08/08 02:30:14;;;;;;;0.00;0.00;;;23.40;58.70;;;;;;4189761;28;20122;-63
2022/08/08 02:33:00;;;;;;;0.00;0.00;;;23.40;58.70;;;;;;4178502;28;20045;-62
2022/08/08 02:36:00;;;;;;;0.00;0.00;;;23.40;58.70;;;;;;4173537;28;20452;-62
2022/08/08 02:38:47;;;;;;;0.00;0.00;;;23.30;58.70;;;;;;4175753;28;20246;-61
2022/08/08 02:41:55;;;;;;;0.00;0.00;;;23.30;58.70;;;;;;4160595;28;20388;-62
2022/08/08 02:44:58;;;;;;;0.00;0.00;;;23.30;58.70;;;;;;4150023;28;20045;-62
2022/08/08 02:48:06;;;;;;;0.00;0.00;;;23.30;58.80;;;;;;4160212;28;20060;-61
2022/08/08 02:51:17;;;;;;;0.00;0.00;;;23.30;58.80;;;;;;4160019;28;20045;-61
2022/08/08 02:54:00;;;;;;;0.00;0.00;;;23.30;58.90;;;;;;4183056;28;20055;-61
2022/08/08 02:56:55;;;;;;;0.00;0.00;;;23.30;58.90;;;;;;4194335;28;20772;-61
2022/08/08 03:00:09;;;;;;;0.00;0.00;;;23.30;59.00;;;;;;4193016;28;20143;-61
2022/08/08 03:03:34;;;;;;;0.00;0.00;;;23.20;58.90;;;;;;4159852;28;20068;-61
2022/08/08 03:06:29;;;;;;;0.00;0.00;;;23.20;58.90;;;;;;4115194;28;20182;-62
2022/08/08 03:09:55;;;;;;;0.20;0.20;;;23.20;59.00;;;;;;4178704;28;20060;-62
2022/08/08 03:12:54;;;;;;;0.10;0.10;;;23.20;59.00;;;;;;4128489;28;20473;-63
2022/08/08 03:16:01;;;;;;;0.10;0.10;;;23.20;59.00;;;;;;4143011;28;22003;-61
2022/08/08 03:18:34;;;;;;;0.00;0.00;;;23.20;59.00;;;;;;4169027;28;20059;-62
2022/08/08 03:20:56;;;;;;;0.95;0.95;;;23.20;59.10;;;;;;4191836;28;20127;-62
2022/08/08 03:23:22;;;;;;;0.00;0.00;;;23.20;59.10;;;;;;4192513;28;20127;-62
2022/08/08 03:25:46;;;;;;;0.00;0.00;;;23.20;59.10;;;;;;4192545;28;20203;-61
2022/08/08 03:28:17;;;;;;;0.57;0.57;;;23.20;59.20;;;;;;4194203;28;20117;-61
2022/08/08 03:30:43;;;;;;;0.10;0.10;;;23.20;59.20;;;;;;4192410;28;20044;-62
2022/08/08 03:33:18;;;;;;;0.00;0.00;;;23.20;59.20;;;;;;4191507;28;20054;-62
2022/08/08 03:36:02;;;;;;;0.13;0.13;;;23.20;59.20;;;;;;4173586;28;20041;-62
2022/08/08 03:38:26;;;;;;;0.00;0.00;;;23.10;59.20;;;;;;4145515;28;20145;-62
2022/08/08 03:41:08;;;;;;;3.20;0.70;;;23.10;59.20;;;;;;4173323;28;20811;-61
2022/08/08 03:43:54;;;;;;;0.00;0.00;;;23.10;59.30;;;;;;4175168;28;20417;-62
2022/08/08 03:46:17;;;;;;;0.00;0.00;;;23.10;59.30;;;;;;4176032;28;20111;-62
2022/08/08 03:48:39;;;;;;;0.00;0.00;;;23.10;60.00;;;;;;4164505;28;20068;-62
2022/08/08 03:51:29;;;;;;;0.00;0.00;;;23.10;59.30;;;;;;4159334;28;20594;-62
2022/08/08 03:54:03;;;;;;;0.00;0.00;;;23.10;59.30;;;;;;4177287;28;20060;-62
2022/08/08 03:56:25;;;;;;;0.00;0.00;;;23.10;59.40;;;;;;4178046;28;20507;-62
2022/08/08 03:58:54;;;;;;;0.00;0.00;;;23.10;59.40;;;;;;4181676;28;20132;-64
2022/08/08 04:01:17;;;;;;;0.00;0.00;;;23.10;59.40;;;;;;4175511;28;20523;-62
2022/08/08 04:03:45;;;;;;;0.00;0.00;;;23.10;59.40;;;;;;4175446;28;20049;-62
2022/08/08 04:06:20;;;;;;;0.00;0.00;;;23.10;59.50;;;;;;4175182;28;20055;-62
2022/08/08 04:08:42;;;;;;;0.00;0.00;;;23.10;60.30;;;;;;4177043;28;20524;-62
2022/08/08 04:11:15;;;;;;;0.00;0.00;;;23.10;59.50;;;;;;4175445;28;20052;-62
2022/08/08 04:13:39;;;;;;;0.47;0.43;;;23.10;59.60;;;;;;4174465;28;20141;-62
2022/08/08 04:16:23;;;;;;;0.10;0.10;;;23.10;59.60;;;;;;4161059;28;20056;-62
2022/08/08 04:18:59;;;;;;;0.00;0.00;;;23.10;59.60;;;;;;4175677;28;20513;-62
2022/08/08 04:21:21;;;;;;;0.08;0.08;;;23.10;59.60;;;;;;4176411;28;20138;-62
2022/08/08 04:23:49;;;;;;;0.05;0.05;;;23.10;59.60;;;;;;4160418;28;20055;-62
2022/08/08 04:26:28;;;;;;;0.00;0.00;;;23.10;59.60;;;;;;4175743;28;20055;-62
2022/08/08 04:28:56;;;;;;;0.85;0.85;;;23.10;59.60;;;;;;4175607;28;20067;-62
2022/08/08 04:31:19;;;;;;;0.05;0.05;;;23.10;59.60;;;;;;4188720;28;20392;-63
2022/08/08 04:33:52;;;;;;;0.00;0.00;;;23.10;59.70;;;;;;4176073;28;20102;-62
2022/08/08 04:36:14;;;;;;;0.28;0.28;;;23.00;59.60;;;;;;4190565;28;20060;-62
2022/08/08 04:38:36;;;;;;;0.00;0.00;;;23.00;59.70;;;;;;4175094;28;20407;-62
2022/08/08 04:40:58;;;;;;;0.20;0.20;;;23.00;59.70;;;;;;4156252;28;20620;-62
2022/08/08 04:43:22;;;;;;;0.00;0.00;;;23.00;59.80;;;;;;4157078;28;20041;-63
2022/08/08 04:45:53;;;;;;;0.00;0.00;;;23.10;59.80;;;;;;4145565;28;20148;-62
2022/08/08 04:48:15;;;;;;;0.00;0.00;;;23.00;59.70;;;;;;4190404;28;20130;-62
2022/08/08 04:50:37;;;;;;;0.00;0.00;;;23.00;59.70;;;;;;4175391;28;20059;-62
2022/08/08 04:53:12;;;;;;;2.70;1.35;;;23.00;59.80;;;;;;4159502;28;20068;-63
2022/08/08 04:55:37;;;;;;;0.00;0.00;;;23.00;59.80;;;;;;4170290;28;20478;-63
2022/08/08 04:58:13;;;;;;;0.00;0.00;;;23.00;59.90;;;;;;4174867;28;20134;-63
2022/08/08 05:00:36;;;;;;;0.00;0.00;;;23.00;60.00;;;;;;4174072;28;20051;-63
2022/08/08 05:02:59;;;;;;;0.00;0.00;;;23.00;59.90;;;;;;4174792;28;20582;-62
2022/08/08 05:05:21;;;;;;;0.00;0.00;;;23.00;59.90;;;;;;4174584;28;20499;-63
2022/08/08 05:08:01;;;;;;;0.13;0.13;;;23.00;59.90;;;;;;4175338;28;20055;-63
2022/08/08 05:10:24;;;;;;;0.00;0.00;;;23.00;59.90;;;;;;4174250;28;20111;-63
2022/08/08 05:12:49;;;;;;;0.00;0.00;;;23.00;60.00;;;;;;4160435;28;20141;-63
2022/08/08 05:15:21;;;;;;;0.00;0.00;;;23.00;60.00;;;;;;4175741;28;20144;-63
2022/08/08 05:17:45;;;;;;;0.95;0.88;;;23.00;60.20;;;;;;4174459;28;20045;-61
2022/08/08 05:20:15;;;;;;;0.93;0.93;;;23.00;60.40;;;;;;4174223;28;20041;-66
2022/08/08 05:22:38;;;;;;;0.00;0.00;;;23.00;60.60;;;;;;4188369;28;20048;-64
2022/08/08 05:25:00;;;;;;;0.08;0.08;;;23.00;60.60;;;;;;4189807;28;20056;-65
2022/08/08 05:27:23;;;;;;;0.00;0.00;;;23.10;60.70;;;;;;4190927;28;20128;-64
2022/08/08 05:29:47;;;;;;;0.32;0.32;;;23.00;60.60;;;;;;4180743;28;20107;-64
2022/08/08 05:32:11;;;;;;;0.00;0.00;;;23.10;60.50;;;;;;4174738;28;20053;-64
2022/08/08 05:34:41;;;;;;;0.30;0.10;;;23.00;60.60;;;;;;4175371;28;20473;-64
2022/08/08 05:37:06;;;;;;;0.00;0.00;;;23.00;60.40;;;;;;4188971;28;20055;-64
2022/08/08 05:39:29;;;;;;;0.00;0.00;;;23.00;60.40;;;;;;4190440;28;20051;-64
2022/08/08 05:41:58;;;;;;;18.00;2.60;;;23.00;60.50;;;;;;4190741;28;20098;-64
2022/08/08 05:44:28;;;;;;;0.00;0.00;;;23.00;60.50;;;;;;4190400;28;20183;-65
2022/08/08 05:46:53;;;;;;;0.00;0.00;;;23.00;60.60;;;;;;4190432;28;20044;-65
2022/08/08 05:49:17;;;;;;;0.00;0.00;;;23.00;60.60;;;;;;4190715;28;20059;-64
2022/08/08 05:51:41;;;;;;;0.00;0.00;;;23.00;60.60;;;;;;4143709;28;20148;-65
2022/08/08 05:54:11;;;;;;;;;;;23.00;60.60;;;;;;4158178;28;20054;-64
2022/08/08 05:56:54;;;;;;;0.00;0.00;;;23.00;60.70;;;;;;4142185;28;19979;-64
2022/08/08 05:59:21;;;;;;;0.00;0.00;;;23.00;60.70;;;;;;4140685;28;20052;-64
2022/08/08 06:04:59;;;;;;;0.03;0.03;;;23.00;61.80;;;;;;4168647;28;20053;-64
2022/08/08 06:07:23;;;;;;;0.25;0.25;;;23.00;60.90;;;;;;4178035;28;20051;-64
2022/08/08 06:09:45;;;;;;;0.00;0.00;;;23.00;61.00;;;;;;4170732;28;20057;-64
2022/08/08 06:12:24;;;;;;;0.45;0.45;;;23.00;61.00;;;;;;4198371;28;20048;-63
2022/08/08 06:14:52;;;;;;;0.00;0.00;;;23.00;61.90;;;;;;4177279;28;20049;-64
2022/08/08 06:17:15;;;;;;;0.00;0.00;;;23.00;61.90;;;;;;4177452;28;20053;-65
2022/08/08 06:19:47;;;;;;;0.57;0.57;;;23.00;61.10;;;;;;4176022;28;20048;-65
2022/08/08 06:22:10;;;;;;;0.00;0.00;;;23.00;62.00;;;;;;4189599;28;20379;-64
2022/08/08 06:24:55;;;;;;;0.28;0.28;;;23.00;61.10;;;;;;4183746;28;20056;-64
2022/08/08 06:27:22;;;;;;;0.00;0.00;;;23.00;61.20;;;;;;4176984;28;20048;-64
2022/08/08 06:29:48;;;;;;;0.00;0.00;;;23.00;61.20;;;;;;4177342;28;20049;-64
2022/08/08 06:32:30;;;;;;;0.00;0.00;;;23.10;61.30;;;;;;4144379;28;20434;-63
2022/08/08 06:34:58;;;;;;;0.00;0.00;;;23.10;61.20;;;;;;4167700;28;20098;-64
2022/08/08 06:37:38;;;;;;;0.00;0.00;;;23.10;61.20;;;;;;4190760;28;20052;-64
2022/08/08 06:40:10;;;;;;;0.00;0.00;;;23.10;61.30;;;;;;4176535;28;20130;-64
2022/08/08 06:42:35;;;;;;;0.00;0.00;;;23.10;61.20;;;;;;4177806;28;20123;-64
2022/08/08 06:45:01;;;;;;;0.00;0.00;;;23.20;61.20;;;;;;4176709;28;20403;-68
2022/08/08 06:47:23;;;;;;;0.00;0.00;;;23.10;62.10;;;;;;4173929;28;20139;-68
2022/08/08 06:49:53;;;;;;;0.00;0.00;;;23.10;61.20;;;;;;4166823;28;20049;-69
2022/08/08 06:52:17;;;;;;;0.00;0.00;;;23.10;61.20;;;;;;4177706;28;20136;-69
2022/08/08 06:54:41;;;;;;;0.00;0.00;;;23.10;61.20;;;;;;4177998;28;20053;-69
2022/08/08 06:57:06;;;;;;;0.20;0.20;;;23.10;61.30;;;;;;4159336;28;20413;-68
2022/08/08 06:59:29;;;;;;;0.00;0.00;;;23.10;61.50;;;;;;4191047;28;20098;-70
2022/08/08 07:02:01;;;;;;;0.73;0.73;;;23.10;61.50;;;;;;4193563;28;20161;-70
2022/08/08 07:04:45;;;;;;;0.00;0.00;;;23.10;61.60;;;;;;4178335;28;20080;-69
2022/08/08 07:07:17;;;;;;;0.20;0.20;;;23.20;61.60;;;;;;4146200;28;20168;-68
2022/08/08 07:09:49;;;;;;;0.10;0.10;;;23.20;61.60;;;;;;4176456;28;20148;-68
2022/08/08 07:12:28;;;;;;;0.00;0.00;;;23.20;61.60;;;;;;4160724;28;20103;-68
2022/08/08 07:14:56;;;;;;;0.00;0.00;;;23.20;61.70;;;;;;4160206;28;20436;-65
2022/08/08 07:17:24;;;;;;;0.00;0.00;;;23.20;61.70;;;;;;4159750;28;20091;-65
2022/08/08 07:20:02;;;;;;;0.00;0.00;;;23.20;61.60;;;;;;4159326;28;20155;-65
2022/08/08 07:22:35;;;;;;;0.00;0.00;;;23.30;61.70;;;;;;4175046;28;20044;-65
2022/08/08 07:25:01;;;;;;;0.00;0.00;;;23.30;61.70;;;;;;4191590;28;20140;-65
2022/08/08 07:27:26;;;;;;;0.00;0.00;;;23.40;61.60;;;;;;4192542;28;20442;-65
2022/08/08 07:29:49;;;;;;;1.05;0.75;;;23.40;61.50;;;;;;4188205;28;20095;-65
2022/08/08 07:32:27;;;;;;;0.00;0.00;;;23.50;61.30;;;;;;4177398;28;20634;-65
2022/08/08 07:34:50;;;;;;;0.63;0.63;;;23.60;61.20;;;;;;4159164;28;20053;-66
2022/08/08 07:37:22;;;;;;;0.30;0.30;;;23.60;61.20;;;;;;4159561;28;20049;-68
2022/08/08 07:39:45;;;;;;;0.10;0.10;;;23.70;61.10;;;;;;4162798;28;20057;-68
2022/08/08 07:42:17;;;;;;;0.00;0.00;;;23.80;60.80;;;;;;4165806;28;20060;-65
2022/08/08 07:44:44;;;;;;;0.00;0.00;;;23.80;61.50;;;;;;4174215;28;20067;-65
2022/08/08 07:47:09;;;;;;;0.38;0.38;;;23.80;60.50;;;;;;4175752;28;20076;-63
2022/08/08 07:49:31;;;;;;;0.00;0.00;;;23.80;60.50;;;;;;4175328;28;20508;-64
2022/08/08 07:51:55;;;;;;;0.00;0.00;;;23.80;60.50;;;;;;4175936;28;20064;-64
2022/08/08 07:54:31;;;;;;;2.55;1.38;;;23.80;60.40;;;;;;4175463;28;20059;-64
2022/08/08 07:57:08;;;;;;;0.00;0.00;;;23.80;60.30;;;;;;4175865;28;20044;-65
2022/08/08 07:59:37;;;;;;;0.00;0.00;;;23.80;60.30;;;;;;4175541;28;20044;-64
2022/08/08 08:02:07;;;;;;;0.00;0.00;;;23.80;60.50;;;;;;4175889;28;20060;-64
2022/08/08 08:04:55;;;;;;;0.00;0.00;;;23.80;60.50;;;;;;4172306;28;20381;-65
2022/08/08 08:07:21;;;;;;;0.10;0.10;;;23.80;60.60;;;;;;4174711;28;20050;-62
2022/08/08 08:09:47;;;;;;;0.03;0.03;;;23.80;60.80;;;;;;4175217;28;20051;-62
2022/08/08 08:12:11;;;;;;;0.10;0.10;;;23.80;60.80;;;;;;4177062;28;20614;-62
2022/08/08 08:14:47;;;;;;;0.00;0.00;;;23.80;60.80;;;;;;4176936;28;20048;-62
2022/08/08 08:17:15;;;;;;;0.00;0.00;;;23.80;60.90;;;;;;4174161;28;20136;-62
2022/08/08 08:19:39;;;;;;;0.00;0.00;;;23.70;60.80;;;;;;4174857;28;20463;-62
2022/08/08 08:22:06;;;;;;;0.00;0.00;;;23.70;60.90;;;;;;4174403;28;20136;-62
2022/08/08 08:24:34;;;;;;;0.00;0.00;;;23.70;61.80;;;;;;4174829;28;20107;-62
2022/08/08 08:26:58;;;;;;;0.00;0.00;;;23.70;61.00;;;;;;4175151;28;20103;-63
2022/08/08 08:29:20;;;;;;;0.00;0.00;;;23.70;61.20;;;;;;4183622;28;20075;-64
2022/08/08 08:31:42;;;;;;;0.00;0.00;;;23.80;61.40;;;;;;4175179;28;20130;-64
2022/08/08 08:34:06;;;;;;;0.00;0.00;;;23.70;61.30;;;;;;4175046;28;20076;-64
2022/08/08 08:36:29;;;;;;;0.00;0.00;;;23.80;61.40;;;;;;4174912;28;20741;-64
2022/08/08 08:38:52;;;;;;;0.00;0.00;;;23.80;61.30;;;;;;4174957;28;20160;-63
2022/08/08 08:41:26;;;;;;;0.00;0.00;;;23.70;61.20;;;;;;4175699;28;20053;-64
2022/08/08 08:43:49;;;;;;;0.00;0.00;;;23.70;61.10;;;;;;4174148;28;20545;-64
2022/08/08 08:46:13;;;;;;;0.90;0.90;;;23.80;61.10;;;;;;4175310;28;20055;-64
2022/08/08 08:48:39;;;;;;;0.00;0.00;;;23.80;61.10;;;;;;4174665;28;20041;-64
2022/08/08 08:51:05;;;;;;;0.00;0.00;;;23.80;61.00;;;;;;4174911;28;20045;-65
2022/08/08 08:53:28;;;;;;;0.35;0.35;;;23.80;61.00;;;;;;4175833;28;20045;-64
2022/08/08 08:56:14;;;;;;;0.00;0.00;;;23.90;61.00;;;;;;4174627;28;20144;-64
2022/08/08 08:58:42;;;;;;;0.00;0.00;;;23.90;60.90;;;;;;4174783;28;20142;-63
2022/08/08 09:01:12;;;;;;;0.00;0.00;;;23.90;61.60;;;;;;4170329;28;20059;-63
2022/08/08 09:03:38;;;;;;;0.10;0.10;;;24.00;60.60;;;;;;4190553;28;20463;-65
2022/08/08 09:06:10;;;;;;;0.00;0.00;;;24.00;60.30;;;;;;4170535;28;20060;-64
2022/08/08 09:08:44;;;;;;;0.00;0.00;;;24.00;60.20;;;;;;4177793;28;20063;-63
2022/08/08 09:11:11;;;;;;;0.00;0.00;;;24.10;60.20;;;;;;4173832;28;20543;-64
2022/08/08 09:13:36;;;;;;;0.00;0.00;;;24.10;60.00;;;;;;4174333;28;20131;-64
2022/08/08 09:15:58;;;;;;;0.10;0.10;;;24.10;59.80;;;;;;4158342;28;20048;-63
2022/08/08 09:18:24;;;;;;;0.22;0.22;;;24.10;59.90;;;;;;4157938;28;20045;-64
2022/08/08 09:20:47;;;;;;;0.00;0.00;;;24.10;59.80;;;;;;4158113;28;20048;-63
2022/08/08 09:23:32;;;;;;;0.10;0.10;;;24.10;59.80;;;;;;4144039;28;20539;-64
2022/08/08 09:26:07;;;;;;;0.00;0.00;;;24.10;60.10;;;;;;4158035;28;20049;-64
2022/08/08 09:28:37;;;;;;;0.00;0.00;;;24.10;60.90;;;;;;4157803;28;20049;-67
2022/08/08 09:31:12;;;;;;;0.00;0.00;;;24.10;61.10;;;;;;4166181;28;20045;-67
2022/08/08 09:33:39;;;;;;;;;;;24.00;60.90;;;;;;4191148;28;20105;-66
2022/08/08 09:36:23;;;;;;;0.00;0.00;;;24.00;60.80;;;;;;4191011;28;19926;-67
2022/08/08 09:38:54;;;;;;;0.00;0.00;;;24.00;60.70;;;;;;4190868;28;20174;-67
2022/08/08 09:41:27;;;;;;;0.00;0.00;;;24.00;60.70;;;;;;4189197;28;20044;-67
2022/08/08 09:44:02;;;;;;;0.22;0.22;;;24.00;60.80;;;;;;4189791;28;20407;-67
2022/08/08 09:46:29;;;;;;;0.00;0.00;;;24.00;60.80;;;;;;4192053;28;20048;-67
2022/08/08 09:48:53;;;;;;;0.00;0.00;;;23.90;60.90;;;;;;4191790;28;20044;-67
2022/08/08 09:51:18;;;;;;;1.52;1.42;;;23.90;60.90;;;;;;4192373;28;20048;-67
2022/08/08 09:53:47;;;;;;;0.10;0.10;;;23.90;60.80;;;;;;4191705;28;20056;-66
2022/08/08 09:56:18;;;;;;;0.17;0.17;;;23.90;60.80;;;;;;4186515;28;20057;-66
2022/08/08 09:58:53;;;;;;;0.38;0.38;;;23.90;60.70;;;;;;4175319;28;20136;-66
2022/08/08 10:01:21;;;;;;;0.10;0.10;;;23.90;60.70;;;;;;4173813;28;20416;-65
2022/08/08 10:04:13;;;;;;;0.00;0.00;;;23.90;60.70;;;;;;4176330;28;20123;-65
2022/08/08 10:06:42;;;;;;;0.40;0.40;;;23.90;60.60;;;;;;4175329;28;20163;-65
2022/08/08 10:09:06;;;;;;;0.00;0.00;;;23.90;60.60;;;;;;4175075;28;20053;-68
2022/08/08 10:11:31;;;;;;;0.00;0.00;;;23.90;60.70;;;;;;4175239;28;20063;-69
2022/08/08 10:14:13;;;;;;;0.20;0.20;;;23.80;60.70;;;;;;4175274;28;20059;-68
2022/08/08 10:16:55;;;;;;;0.00;0.00;;;23.80;60.80;;;;;;4176424;28;20111;-69
2022/08/08 10:19:19;;;;;;;0.00;0.00;;;23.80;60.80;;;;;;4175038;28;20107;-68
2022/08/08 10:21:41;;;;;;;0.00;0.00;;;23.80;60.90;;;;;;4175445;28;20060;-68
2022/08/08 10:24:12;;;;;;;0.20;0.20;;;23.80;60.90;;;;;;4173647;28;20071;-67
2022/08/08 10:26:57;;;;;;;0.00;0.00;;;23.90;60.90;;;;;;4175326;28;20206;-68
2022/08/08 10:29:31;;;;;;;0.00;0.00;;;23.80;60.90;;;;;;4176640;28;20415;-68
2022/08/08 10:34:49;;;;;;;0.00;0.00;;;23.80;60.90;;;;;;4178594;28;20041;-68
2022/08/08 10:37:12;;;;;;;0.17;0.17;;;23.80;60.90;;;;;;4174054;28;20084;-69
2022/08/08 10:39:43;;;;;;;0.10;0.10;;;23.90;61.00;;;;;;4174696;28;20477;-69
2022/08/08 10:42:20;;;;;;;0.00;0.00;;;23.80;60.90;;;;;;4175045;28;20443;-69
2022/08/08 10:44:43;;;;;;;0.00;0.00;;;23.80;60.90;;;;;;4174657;28;20041;-69
2022/08/08 10:47:11;;;;;;;0.00;0.00;;;23.80;60.90;;;;;;4174878;28;20040;-68
2022/08/08 10:49:33;;;;;;;0.00;0.00;;;23.80;60.80;;;;;;4175013;28;20073;-68
2022/08/08 10:52:23;;;;;;;0.80;0.70;;;23.80;60.80;;;;;;4175783;28;20057;-68
2022/08/08 10:54:53;;;;;;;0.00;0.00;;;23.80;60.80;;;;;;4182997;28;20525;-68
2022/08/08 10:57:17;;;;;;;0.00;0.00;;;23.90;60.80;;;;;;4170259;28;20132;-65
2022/08/08 10:59:44;;;;;;;0.10;0.10;;;23.90;60.80;;;;;;4177631;28;20388;-69
2022/08/08 11:02:07;;;;;;;0.20;0.20;;;23.90;60.70;;;;;;4178150;28;20123;-69
2022/08/08 11:04:29;;;;;;;0.00;0.00;;;23.90;60.60;;;;;;4180470;28;20122;-69
2022/08/08 11:07:00;;;;;;;0.00;0.00;;;23.80;60.50;;;;;;4183695;28;20135;-69
2022/08/08 11:09:22;;;;;;;0.00;0.00;;;23.90;60.60;;;;;;4174103;28;20041;-69
2022/08/08 11:11:46;;;;;;;0.00;0.00;;;23.90;60.50;;;;;;4189076;28;20127;-69
2022/08/08 11:14:23;;;;;;;0.10;0.10;;;23.90;60.50;;;;;;4184854;28;20767;-69
2022/08/08 11:16:47;;;;;;;0.00;0.00;;;23.90;60.50;;;;;;4185610;28;20123;-69
2022/08/08 11:19:09;;;;;;;0.00;0.00;;;23.90;60.60;;;;;;4180652;28;20140;-68
2022/08/08 11:21:35;;;;;;;0.15;0.15;;;23.90;60.60;;;;;;4177037;28;20468;-67
2022/08/08 11:24:01;;;;;;;0.20;0.20;;;23.90;60.50;;;;;;4160630;28;20072;-67
2022/08/08 11:26:26;;;;;;;0.00;0.00;;;23.90;60.50;;;;;;4160811;28;20397;-68
2022/08/08 11:28:50;;;;;;;0.00;0.00;;;23.90;60.50;;;;;;4161144;28;20049;-69
2022/08/08 11:31:17;;;;;;;0.00;0.00;;;23.90;60.40;;;;;;4161053;28;20104;-67
2022/08/08 11:33:40;;;;;;;0.13;0.13;;;23.90;60.40;;;;;;4160758;28;20116;-67
2022/08/08 11:36:14;;;;;;;0.00;0.00;;;23.90;60.40;;;;;;4161187;28;20476;-67
2022/08/08 11:38:37;;;;;;;0.00;0.00;;;23.90;60.30;;;;;;4176755;28;20049;-67
2022/08/08 11:41:05;;;;;;;0.00;0.00;;;23.90;60.20;;;;;;4177122;28;20090;-67
2022/08/08 11:43:29;;;;;;;0.00;0.00;;;23.90;60.20;;;;;;4176753;28;20530;-68
2022/08/08 11:45:59;;;;;;;0.77;0.22;;;23.90;60.30;;;;;;4177143;28;20056;-70
2022/08/08 11:48:33;;;;;;;0.00;0.00;;;23.90;60.20;;;;;;4185706;28;20053;-67
2022/08/08 11:50:56;;;;;;;1.27;0.75;;;23.90;60.50;;;;;;4177281;28;20064;-67
2022/08/08 11:53:20;;;;;;;0.00;0.00;;;23.90;60.60;;;;;;4189074;28;20048;-67
2022/08/08 11:55:49;;;;;;;0.00;0.00;;;23.90;60.40;;;;;;4193483;28;20125;-67
2022/08/08 11:58:12;;;;;;;0.25;0.25;;;23.90;60.30;;;;;;4171835;28;20114;-67
2022/08/08 12:00:44;;;;;;;0.00;0.00;;;23.90;60.30;;;;;;4178255;28;20119;-67
2022/08/08 12:03:16;;;;;;;0.00;0.00;;;23.90;60.30;;;;;;4177039;28;20076;-67
2022/08/08 12:05:44;;;;;;;0.03;0.03;;;23.90;60.30;;;;;;4177122;28;20134;-67
2022/08/08 12:08:07;;;;;;;0.00;0.00;;;23.90;60.30;;;;;;4179612;28;20056;-68
2022/08/08 12:10:30;;;;;;;0.00;0.00;;;23.90;60.30;;;;;;4166676;28;20476;-68
2022/08/08 12:13:01;;;;;;;0.00;0.00;;;23.90;60.50;;;;;;4176815;28;20075;-68
2022/08/08 12:15:29;;;;;;;0.00;0.00;;;23.90;60.80;;;;;;4176557;28;20049;-66
2022/08/08 12:17:51;;;;;;;0.10;0.10;;;23.90;60.70;;;;;;4177168;28;20098;-66
2022/08/08 12:20:13;;;;;;;0.00;0.00;;;23.90;61.10;;;;;;4191796;28;20067;-66
2022/08/08 12:22:48;;;;;;;0.08;0.08;;;23.80;60.90;;;;;;4193306;28;20538;-67
2022/08/08 12:25:20;;;;;;;0.47;0.47;;;23.90;61.10;;;;;;4185856;28;20531;-66
2022/08/08 12:27:42;;;;;;;0.00;0.00;;;23.90;61.20;;;;;;4176311;28;20079;-67
2022/08/08 12:30:07;;;;;;;0.00;0.00;;;23.80;61.40;;;;;;4176217;28;20066;-67
2022/08/08 12:32:41;;;;;;;0.00;0.00;;;23.90;61.30;;;;;;4175535;28;20104;-67
2022/08/08 12:35:05;;;;;;;0.00;0.00;;;23.80;61.50;;;;;;4176329;28;20098;-68
2022/08/08 12:37:39;;;;;;;0.10;0.10;;;23.80;62.10;;;;;;4176387;28;20057;-66
2022/08/08 12:40:15;;;;;;;0.00;0.00;;;23.80;61.50;;;;;;4176330;28;20484;-66
2022/08/08 12:42:45;;;;;;;0.08;0.08;;;23.90;61.70;;;;;;4179312;28;20098;-66
2022/08/08 12:45:10;;;;;;;0.00;0.00;;;23.80;61.70;;;;;;4187370;28;20091;-66
2022/08/08 12:47:59;;;;;;;0.00;0.00;;;23.90;61.70;;;;;;4161252;28;20049;-67
2022/08/08 12:50:26;;;;;;;0.00;0.00;;;23.90;61.90;;;;;;4181496;28;20056;-66
2022/08/08 12:52:54;;;;;;;0.00;0.00;;;23.90;62.00;;;;;;4175956;28;20051;-66
2022/08/08 12:55:18;;;;;;;0.00;0.00;;;23.90;62.10;;;;;;4176244;28;20063;-66
2022/08/08 12:57:52;;;;;;;0.00;0.00;;;23.90;62.10;;;;;;4176370;28;20052;-66
2022/08/08 13:00:27;;;;;;;0.00;0.00;;;23.90;62.20;;;;;;4192394;28;20121;-67
2022/08/08 13:02:58;;;;;;;0.00;0.00;;;23.90;62.10;;;;;;4190814;28;20044;-67
2022/08/08 13:05:23;;;;;;;0.00;0.00;;;23.90;62.10;;;;;;4192394;28;20050;-67
2022/08/08 13:07:48;;;;;;;0.00;0.00;;;23.90;62.00;;;;;;4191934;28;20045;-68
2022/08/08 13:10:31;;;;;;;0.00;0.00;;;23.90;62.00;;;;;;4191933;28;20083;-68
2022/08/08 13:12:53;;;;;;;0.00;0.00;;;23.90;62.00;;;;;;4191913;28;20154;-68
2022/08/08 13:15:19;;;;;;;0.35;0.35;;;24.00;61.90;;;;;;4192070;28;20102;-67
2022/08/08 13:17:42;;;;;;;0.00;0.00;;;24.00;61.90;;;;;;4187715;28;20511;-67
2022/08/08 13:20:17;;;;;;;0.00;0.00;;;24.00;61.80;;;;;;4175549;28;20114;-67
2022/08/08 13:22:39;;;;;;;0.00;0.00;;;24.00;61.70;;;;;;4174349;28;20056;-67
2022/08/08 13:25:02;;;;;;;0.00;0.00;;;24.10;61.70;;;;;;4175971;28;20064;-67
2022/08/08 13:27:29;;;;;;;0.00;0.00;;;24.10;61.60;;;;;;4175853;28;20053;-67